createdAt,value
2019-06-26T00:02:08.007Z,16.07
2019-06-26T00:04:36.570Z,15.35
2019-06-26T00:07:05.311Z,15.40
2019-06-26T00:09:33.938Z,15.98
2019-06-26T00:12:02.458Z,15.65
2019-06-26T00:14:31.018Z,17.98
2019-06-26T00:16:59.717Z,16.57
2019-06-26T00:19:28.338Z,16.65
2019-06-26T00:21:56.877Z,16.85
2019-06-26T00:24:25.524Z,17.07
2019-06-26T00:26:54.088Z,16.32
2019-06-26T00:29:22.643Z,16.55
2019-06-26T00:31:51.242Z,16.42
2019-06-26T00:34:20.305Z,16.68
2019-06-26T00:36:48.869Z,16.42
2019-06-26T00:39:17.502Z,16.20
2019-06-26T00:41:46.109Z,16.13
2019-06-26T00:44:14.681Z,15.95
2019-06-26T00:46:43.281Z,16.17
2019-06-26T00:49:11.837Z,16.62
2019-06-26T00:51:40.432Z,15.98
2019-06-26T00:54:09.045Z,16.35
2019-06-26T00:56:37.625Z,16.50
2019-06-26T00:59:06.164Z,16.15
2019-06-26T01:01:34.696Z,16.32
2019-06-26T01:04:07.608Z,16.20
2019-06-26T01:06:45.011Z,16.75
2019-06-26T01:09:14.726Z,16.07
2019-06-26T01:11:43.522Z,17.40
2019-06-26T01:14:12.173Z,16.80
2019-06-26T01:16:40.842Z,17.12
2019-06-26T01:19:09.413Z,16.87
2019-06-26T01:21:38.041Z,17.48
2019-06-26T01:24:06.658Z,16.87
2019-06-26T01:26:35.664Z,15.78
2019-06-26T01:29:04.415Z,16.52
2019-06-26T01:31:33.307Z,16.85
2019-06-26T01:34:02.049Z,15.53
2019-06-26T01:36:30.617Z,16.60
2019-06-26T01:38:59.271Z,17.00
2019-06-26T01:41:28.234Z,17.32
2019-06-26T01:43:56.804Z,17.95
2019-06-26T01:46:25.401Z,17.82
2019-06-26T01:48:53.976Z,17.73
2019-06-26T01:51:22.554Z,16.40
2019-06-26T01:53:51.153Z,16.93
2019-06-26T01:56:19.706Z,17.17
2019-06-26T01:58:48.277Z,16.80
2019-06-26T02:01:16.871Z,16.65
2019-06-26T02:03:46.149Z,17.52
2019-06-26T02:06:14.729Z,17.32
2019-06-26T02:08:43.340Z,17.37
2019-06-26T02:11:11.895Z,17.80
2019-06-26T02:13:40.457Z,17.35
2019-06-26T02:16:09.070Z,17.67
2019-06-26T02:18:47.990Z,18.27
2019-06-26T02:21:16.547Z,17.40
2019-06-26T02:23:45.246Z,17.20
2019-06-26T02:26:13.887Z,17.57
2019-06-26T02:28:42.515Z,18.20
2019-06-26T02:31:11.497Z,18.04
2019-06-26T02:33:40.060Z,16.90
2019-06-26T02:36:08.698Z,18.50
2019-06-26T02:38:37.267Z,17.80
2019-06-26T02:41:05.913Z,18.60
2019-06-26T02:43:34.559Z,17.85
2019-06-26T02:46:03.144Z,19.03
2019-06-26T02:48:31.706Z,18.57
2019-06-26T02:51:00.272Z,18.35
2019-06-26T02:53:28.895Z,18.75
2019-06-26T02:55:57.483Z,17.20
2019-06-26T02:58:26.111Z,17.42
2019-06-26T03:00:54.710Z,16.70
2019-06-26T03:03:23.272Z,16.97
2019-06-26T03:05:51.839Z,16.97
2019-06-26T03:08:20.443Z,18.12
2019-06-26T03:10:49.844Z,16.48
2019-06-26T03:13:18.425Z,16.82
2019-06-26T03:15:50.322Z,16.07
2019-06-26T03:18:17.261Z,16.50
2019-06-26T03:20:54.434Z,16.42
2019-06-26T03:23:23.262Z,16.73
2019-06-26T03:25:51.816Z,15.78
2019-06-26T03:28:20.467Z,16.35
2019-06-26T03:30:49.466Z,17.02
2019-06-26T03:33:18.042Z,16.83
2019-06-26T03:35:46.632Z,17.32
2019-06-26T03:38:16.163Z,16.62
2019-06-26T03:40:44.813Z,16.37
2019-06-26T03:43:13.649Z,17.82
2019-06-26T03:45:42.260Z,17.37
2019-06-26T03:48:10.904Z,17.23
2019-06-26T03:50:39.476Z,17.25
2019-06-26T03:53:08.092Z,16.57
2019-06-26T03:55:36.662Z,16.32
2019-06-26T03:58:05.297Z,17.10
2019-06-26T04:00:39.618Z,17.95
2019-06-26T04:03:08.726Z,17.10
2019-06-26T04:05:37.357Z,16.27
2019-06-26T04:08:06.244Z,16.20
2019-06-26T04:10:35.751Z,17.15
2019-06-26T04:13:05.042Z,17.05
2019-06-26T04:15:42.070Z,16.93
2019-06-26T04:18:03.807Z,15.60
2019-06-26T04:20:32.369Z,16.73
2019-06-26T04:23:01.300Z,17.22
2019-06-26T04:25:29.875Z,16.82
2019-06-26T04:27:58.437Z,16.20
2019-06-26T04:30:27.184Z,16.23
2019-06-26T04:32:55.717Z,16.15
2019-06-26T04:35:24.373Z,16.67
2019-06-26T04:37:52.975Z,16.15
2019-06-26T04:40:21.700Z,14.85
2019-06-26T04:42:50.343Z,15.00
2019-06-26T04:45:19.388Z,15.53
2019-06-26T04:47:47.953Z,15.10
2019-06-26T04:50:17.148Z,15.40
2019-06-26T04:52:45.759Z,14.60
2019-06-26T04:55:15.359Z,14.80
2019-06-26T04:57:43.922Z,15.32
2019-06-26T05:00:14.729Z,14.65
2019-06-26T05:02:43.296Z,14.73
2019-06-26T05:05:14.370Z,14.95
2019-06-26T05:07:43.202Z,13.80
2019-06-26T05:10:12.045Z,14.85
2019-06-26T05:12:40.588Z,14.00
2019-06-26T05:15:09.816Z,14.37
2019-06-26T05:17:38.451Z,14.83
2019-06-26T05:20:08.677Z,14.43
2019-06-26T05:22:41.258Z,14.53
2019-06-26T05:25:09.906Z,15.00
2019-06-26T05:27:38.601Z,14.43
2019-06-26T05:30:10.294Z,14.25
2019-06-26T05:32:38.930Z,14.38
2019-06-26T05:35:08.332Z,14.15
2019-06-26T05:37:36.951Z,13.45
2019-06-26T05:40:08.600Z,13.90
2019-06-26T05:42:37.176Z,13.90
2019-06-26T05:45:06.312Z,15.40
2019-06-26T05:47:34.941Z,13.40
2019-06-26T05:50:05.744Z,13.62
2019-06-26T05:52:34.442Z,13.53
2019-06-26T05:55:03.005Z,13.22
2019-06-26T05:57:32.237Z,13.15
2019-06-26T06:00:01.011Z,13.15
2019-06-26T06:02:29.542Z,13.85
2019-06-26T06:13:19.696Z,13.48
2019-06-26T06:15:48.278Z,12.88
2019-06-26T06:18:16.916Z,14.43
2019-06-26T06:20:45.667Z,14.00
2019-06-26T06:23:14.217Z,13.67
2019-06-26T06:25:42.875Z,12.88
2019-06-26T06:28:11.471Z,13.40
2019-06-26T06:30:45.060Z,13.18
2019-06-26T06:33:12.544Z,13.03
2019-06-26T06:35:41.154Z,12.83
2019-06-26T06:38:29.075Z,12.95
2019-06-26T06:40:57.739Z,13.83
2019-06-26T06:43:28.752Z,13.18
2019-06-26T06:46:01.802Z,13.65
2019-06-26T06:48:30.417Z,13.00
2019-06-26T06:50:59.214Z,13.60
2019-06-26T06:53:28.254Z,13.36
2019-06-26T06:55:56.944Z,13.72
2019-06-26T06:58:31.432Z,13.50
2019-06-26T07:01:00.167Z,14.20
2019-06-26T07:03:28.837Z,13.50
2019-06-26T07:05:57.534Z,13.28
2019-06-26T07:08:26.330Z,13.13
2019-06-26T07:10:55.003Z,13.22
2019-06-26T07:13:24.284Z,13.30
2019-06-26T07:15:52.917Z,13.20
2019-06-26T07:18:21.543Z,13.60
2019-06-26T07:20:50.112Z,12.45
2019-06-26T07:23:18.781Z,12.78
2019-06-26T07:25:47.458Z,13.15
2019-06-26T07:28:16.058Z,13.97
2019-06-26T07:30:44.689Z,12.45
2019-06-26T07:33:13.411Z,13.30
2019-06-26T07:35:42.115Z,13.65
2019-06-26T07:38:11.329Z,13.48
2019-06-26T07:40:40.022Z,13.58
2019-06-26T07:43:08.569Z,13.43
2019-06-26T07:45:37.273Z,13.20
2019-06-26T07:48:05.908Z,13.38
2019-06-26T07:50:34.580Z,13.20
2019-06-26T07:53:04.424Z,12.93
2019-06-26T07:55:33.074Z,12.93
2019-06-26T07:58:01.723Z,12.65
2019-06-26T08:00:31.731Z,12.95
2019-06-26T08:03:04.084Z,11.50
2019-06-26T08:05:30.813Z,12.28
2019-06-26T08:07:59.661Z,11.43
2019-06-26T08:10:28.310Z,12.05
2019-06-26T08:12:57.029Z,11.50
2019-06-26T08:15:25.676Z,11.33
2019-06-26T08:18:00.662Z,11.78
2019-06-26T08:20:24.732Z,10.88
2019-06-26T08:22:54.287Z,12.20
2019-06-26T08:25:22.977Z,10.28
2019-06-26T08:27:51.652Z,10.13
2019-06-26T08:30:21.014Z,10.68
2019-06-26T08:32:49.632Z,10.23
2019-06-26T08:35:18.210Z,32.53
2019-06-26T08:37:46.914Z,11.22
2019-06-26T08:40:15.698Z,9.55
2019-06-26T08:42:44.271Z,10.20
2019-06-26T08:45:13.276Z,10.23
2019-06-26T08:47:41.881Z,9.33
2019-06-26T08:50:12.192Z,10.40
2019-06-26T08:52:40.836Z,10.10
2019-06-26T08:55:09.747Z,9.13
2019-06-26T08:57:38.262Z,9.98
2019-06-26T09:00:11.604Z,9.18
2019-06-26T09:02:40.212Z,10.90
2019-06-26T09:05:09.185Z,9.23
2019-06-26T09:07:38.322Z,9.53
2019-06-26T09:10:07.974Z,9.65
2019-06-26T09:12:36.600Z,9.68
2019-06-26T09:15:08.475Z,9.13
2019-06-26T09:17:37.163Z,9.30
2019-06-26T09:20:07.625Z,8.93
2019-06-26T09:22:36.222Z,8.53
2019-06-26T09:25:21.083Z,7.47
2019-06-26T09:27:36.893Z,8.48
2019-06-26T09:30:10.532Z,9.10
2019-06-26T09:32:40.066Z,8.45
2019-06-26T09:35:09.400Z,8.05
2019-06-26T09:37:38.043Z,7.87
2019-06-26T09:40:08.948Z,8.43
2019-06-26T09:42:37.598Z,8.55
2019-06-26T09:45:09.247Z,8.27
2019-06-26T09:47:37.917Z,9.03
2019-06-26T09:50:08.092Z,8.00
2019-06-26T09:52:36.653Z,8.00
2019-06-26T09:55:06.976Z,8.30
2019-06-26T09:57:35.650Z,7.60
2019-06-26T10:00:07.524Z,8.90
2019-06-26T10:02:36.113Z,8.63
2019-06-26T10:05:06.305Z,8.55
2019-06-26T10:07:34.873Z,8.75
2019-06-26T10:10:04.058Z,9.07
2019-06-26T10:12:32.631Z,9.48
2019-06-26T10:15:01.208Z,9.63
2019-06-26T10:17:29.850Z,8.88
2019-06-26T10:19:58.405Z,9.13
2019-06-26T10:22:26.970Z,9.30
2019-06-26T10:24:56.363Z,9.10
2019-06-26T10:27:24.928Z,8.43
2019-06-26T10:29:53.475Z,8.08
2019-06-26T10:32:23.455Z,8.50
2019-06-26T10:34:52.090Z,8.28
2019-06-26T10:37:20.731Z,8.20
2019-06-26T10:39:49.467Z,8.30
2019-06-26T10:42:18.162Z,8.18
2019-06-26T10:44:47.157Z,8.38
2019-06-26T10:47:16.278Z,8.25
2019-06-26T10:49:44.912Z,8.18
2019-06-26T10:52:13.623Z,7.55
2019-06-26T10:54:44.488Z,7.72
2019-06-26T10:57:13.214Z,7.95
2019-06-26T10:59:42.016Z,7.60
2019-06-26T11:02:10.594Z,7.10
2019-06-26T11:04:39.370Z,7.45
2019-06-26T11:07:08.046Z,7.70
2019-06-26T11:09:39.074Z,7.70
2019-06-26T11:12:07.672Z,7.22
2019-06-26T11:14:36.355Z,7.90
2019-06-26T11:17:04.971Z,8.78
2019-06-26T11:19:43.448Z,7.92
2019-06-26T11:22:03.815Z,7.17
2019-06-26T11:24:32.468Z,7.62
2019-06-26T11:27:01.192Z,6.53
2019-06-26T11:29:29.769Z,7.35
2019-06-26T11:31:59.617Z,7.50
2019-06-26T11:34:28.180Z,6.55
2019-06-26T11:37:03.894Z,7.85
2019-06-26T11:39:26.985Z,6.90
2019-06-26T11:41:55.691Z,7.42
2019-06-26T11:44:24.279Z,6.97
2019-06-26T11:46:52.986Z,7.92
2019-06-26T11:49:21.675Z,7.50
2019-06-26T11:51:50.339Z,7.83
2019-06-26T11:54:19.460Z,8.28
2019-06-26T11:56:48.132Z,8.50
2019-06-26T11:59:16.710Z,8.30
2019-06-26T12:01:45.483Z,7.73
2019-06-26T12:04:13.997Z,8.15
2019-06-26T12:06:45.697Z,7.67
2019-06-26T12:09:12.864Z,8.10
2019-06-26T12:11:41.485Z,7.83
2019-06-26T12:14:10.282Z,8.70
2019-06-26T12:16:41.688Z,8.18
2019-06-26T12:19:10.386Z,8.50
2019-06-26T12:21:38.999Z,8.30
2019-06-26T12:24:07.677Z,8.90
2019-06-26T12:26:36.285Z,8.28
2019-06-26T12:29:09.182Z,8.70
2019-06-26T12:31:37.770Z,9.33
2019-06-26T12:34:06.474Z,8.67
2019-06-26T12:36:36.953Z,8.38
2019-06-26T12:39:07.759Z,8.34
2019-06-26T12:41:36.310Z,8.75
2019-06-26T12:44:05.047Z,8.68
2019-06-26T12:46:33.744Z,9.60
2019-06-26T12:49:02.449Z,8.98
2019-06-26T12:51:31.014Z,8.63
2019-06-26T12:53:59.640Z,8.50
2019-06-26T12:56:28.380Z,8.63
2019-06-26T12:58:59.795Z,8.65
2019-06-26T13:01:28.294Z,8.43
2019-06-26T13:03:57.879Z,8.05
2019-06-26T13:06:27.856Z,7.90
2019-06-26T13:08:56.535Z,9.43
2019-06-26T13:11:25.110Z,9.35
2019-06-26T13:14:02.658Z,9.13
2019-06-26T13:16:24.148Z,8.15
2019-06-26T13:18:52.705Z,9.18
2019-06-26T13:21:21.296Z,8.88
2019-06-26T13:23:49.872Z,9.28
2019-06-26T13:26:18.539Z,8.73
2019-06-26T13:28:47.085Z,9.30
2019-06-26T13:31:15.742Z,9.00
2019-06-26T13:33:44.340Z,8.33
2019-06-26T13:36:13.064Z,9.05
2019-06-26T13:38:41.707Z,9.18
2019-06-26T13:41:10.429Z,8.63
2019-06-26T13:43:39.027Z,8.60
2019-06-26T13:46:08.377Z,9.10
2019-06-26T13:48:37.119Z,8.48
2019-06-26T13:51:09.909Z,9.28
2019-06-26T13:53:37.088Z,9.40
2019-06-26T13:56:05.755Z,9.55
2019-06-26T13:58:34.339Z,8.97
2019-06-26T14:01:02.992Z,9.73
2019-06-26T14:03:31.940Z,11.03
2019-06-26T14:06:00.509Z,9.25
2019-06-26T14:08:32.814Z,9.55
2019-06-26T14:11:00.657Z,9.23
2019-06-26T14:13:29.274Z,9.83
2019-06-26T14:15:57.885Z,9.60
2019-06-26T14:18:29.545Z,9.30
2019-06-26T14:20:56.708Z,9.63
2019-06-26T14:23:25.472Z,9.63
2019-06-26T14:25:54.060Z,9.80
2019-06-26T14:28:22.625Z,9.25
2019-06-26T14:30:51.369Z,9.50
2019-06-26T14:33:19.937Z,9.43
2019-06-26T14:35:48.713Z,9.40
2019-06-26T14:38:17.553Z,9.93
2019-06-26T14:40:46.216Z,9.45
2019-06-26T14:43:15.199Z,8.33
2019-06-26T14:45:44.931Z,8.73
2019-06-26T14:48:13.511Z,8.13
2019-06-26T14:50:42.067Z,8.88
2019-06-26T14:53:10.845Z,9.30
2019-06-26T14:55:39.450Z,8.43
2019-06-26T14:58:08.086Z,8.20
2019-06-26T15:00:36.874Z,7.40
2019-06-26T15:03:13.234Z,8.63
2019-06-26T15:05:42.125Z,8.78
2019-06-26T15:08:10.658Z,8.43
2019-06-26T15:10:39.272Z,9.33
2019-06-26T15:13:07.924Z,8.50
2019-06-26T15:15:37.169Z,8.58
2019-06-26T15:18:05.903Z,9.00
2019-06-26T15:20:34.487Z,8.10
2019-06-26T15:23:03.220Z,8.10
2019-06-26T15:25:31.925Z,8.30
2019-06-26T15:28:00.518Z,8.83
2019-06-26T15:30:29.105Z,9.00
2019-06-26T15:32:58.049Z,8.50
2019-06-26T15:35:26.664Z,9.05
2019-06-26T15:37:56.245Z,8.37
2019-06-26T15:40:24.924Z,8.58
2019-06-26T15:42:53.654Z,8.43
2019-06-26T15:45:22.247Z,8.25
2019-06-26T15:47:50.894Z,7.42
2019-06-26T15:50:19.714Z,7.10
2019-06-26T15:52:48.290Z,7.77
2019-06-26T15:55:17.022Z,7.58
2019-06-26T15:57:45.585Z,8.08
2019-06-26T16:00:14.393Z,8.37
2019-06-26T16:02:42.952Z,8.53
2019-06-26T16:05:11.753Z,8.53
2019-06-26T16:07:40.336Z,8.73
2019-06-26T16:10:09.767Z,8.58
2019-06-26T16:12:38.420Z,8.27
2019-06-26T16:15:08.058Z,8.05
2019-06-26T16:17:38.402Z,7.92
2019-06-26T16:20:07.630Z,13.22
2019-06-26T16:22:36.214Z,8.05
2019-06-26T16:25:05.915Z,8.63
2019-06-26T16:27:34.496Z,7.58
2019-06-26T16:30:03.379Z,7.50
2019-06-26T16:32:32.065Z,7.47
2019-06-26T16:35:00.637Z,7.83
2019-06-26T16:37:29.293Z,7.10
2019-06-26T16:39:58.249Z,8.30
2019-06-26T16:42:27.976Z,7.22
2019-06-26T16:44:58.177Z,8.10
2019-06-26T16:47:26.737Z,7.35
2019-06-26T16:49:55.283Z,7.58
2019-06-26T16:52:24.017Z,7.05
2019-06-26T16:54:52.750Z,7.28
2019-06-26T16:57:21.334Z,7.15
2019-06-26T16:59:49.927Z,6.78
2019-06-26T17:02:19.427Z,6.72
2019-06-26T17:04:48.879Z,6.87
2019-06-26T17:07:17.606Z,7.35
2019-06-26T17:09:46.359Z,7.10
2019-06-26T17:12:14.897Z,6.92
2019-06-26T17:14:43.500Z,6.40
2019-06-26T17:17:12.154Z,8.13
2019-06-26T17:19:40.707Z,6.70
2019-06-26T17:22:09.328Z,7.33
2019-06-26T17:24:37.881Z,8.83
2019-06-26T17:27:06.550Z,10.32
2019-06-26T17:29:35.226Z,9.33
2019-06-26T17:32:06.863Z,7.30
2019-06-26T17:34:36.046Z,7.53
2019-06-26T17:37:04.893Z,7.55
2019-06-26T17:39:33.545Z,8.08
2019-06-26T17:42:02.112Z,7.74
2019-06-26T17:44:30.784Z,8.23
2019-06-26T17:47:04.497Z,8.38
2019-06-26T17:49:31.359Z,8.40
2019-06-26T17:51:59.946Z,7.97
2019-06-26T17:54:28.513Z,7.83
2019-06-26T17:56:57.087Z,7.83
2019-06-26T17:59:25.686Z,7.87
2019-06-26T18:01:57.175Z,8.88
2019-06-26T18:04:25.767Z,7.60
2019-06-26T18:06:54.347Z,8.60
2019-06-26T18:09:22.913Z,8.40
2019-06-26T18:11:51.569Z,8.08
2019-06-26T18:14:20.182Z,7.93
2019-06-26T18:16:48.742Z,8.55
2019-06-26T18:19:17.378Z,7.83
2019-06-26T18:21:46.055Z,7.97
2019-06-26T18:24:14.619Z,8.38
2019-06-26T18:26:43.230Z,7.70
2019-06-26T18:29:11.941Z,8.05
2019-06-26T18:31:40.622Z,8.23
2019-06-26T18:34:09.283Z,8.35
2019-06-26T18:36:38.635Z,8.13
2019-06-26T18:39:13.165Z,8.47
2019-06-26T18:41:41.699Z,7.50
2019-06-26T18:44:13.533Z,8.40
2019-06-26T18:46:42.450Z,9.80
2019-06-26T18:49:19.216Z,8.70
2019-06-26T18:51:57.916Z,9.50
2019-06-26T18:54:26.611Z,7.97
2019-06-26T18:56:55.421Z,8.43
2019-06-26T18:59:24.131Z,8.47
2019-06-26T19:01:58.237Z,7.70
2019-06-26T19:04:26.557Z,8.33
2019-06-26T19:07:01.850Z,7.78
2019-06-26T19:09:26.511Z,8.18
2019-06-26T19:11:55.229Z,8.95
2019-06-26T19:14:24.011Z,8.50
2019-06-26T19:16:52.574Z,8.60
2019-06-26T19:19:21.222Z,8.85
2019-06-26T19:21:49.899Z,8.30
2019-06-26T19:24:18.564Z,8.23
2019-06-26T19:26:47.248Z,8.60
2019-06-26T19:29:15.859Z,8.05
2019-06-26T19:31:48.275Z,8.88
2019-06-26T19:34:16.855Z,8.40
2019-06-26T19:36:50.139Z,7.67
2019-06-26T19:39:15.807Z,8.58
2019-06-26T19:41:49.242Z,8.80
2019-06-26T19:44:17.785Z,7.78
2019-06-26T19:46:46.427Z,7.97
2019-06-26T19:49:23.773Z,8.45
2019-06-26T19:51:51.645Z,8.50
2019-06-26T19:54:27.581Z,8.43
2019-06-26T19:56:50.625Z,8.30
2019-06-26T19:59:22.289Z,8.13
2019-06-26T20:01:51.460Z,8.77
2019-06-26T20:04:20.428Z,8.93
2019-06-26T20:06:50.800Z,8.63
2019-06-26T20:09:23.912Z,8.53
2019-06-26T20:11:54.720Z,8.20
2019-06-26T20:14:23.424Z,8.03
2019-06-26T20:16:54.757Z,8.50
2019-06-26T20:19:24.659Z,8.83
2019-06-26T20:21:53.204Z,8.10
2019-06-26T20:24:21.826Z,8.10
2019-06-26T20:26:50.440Z,8.33
2019-06-26T20:29:19.464Z,8.90
2019-06-26T20:31:47.998Z,8.40
2019-06-26T20:34:16.809Z,8.63
2019-06-26T20:36:46.794Z,8.60
2019-06-26T20:39:18.245Z,8.15
2019-06-26T20:41:51.515Z,8.55
2019-06-26T20:44:21.647Z,9.10
2019-06-26T20:46:53.130Z,9.05
2019-06-26T20:49:20.646Z,8.60
2019-06-26T20:51:49.240Z,8.10
2019-06-26T20:54:17.988Z,8.60
2019-06-26T20:56:46.587Z,8.50
2019-06-26T20:59:15.226Z,8.67
2019-06-26T21:01:43.983Z,8.10
2019-06-26T21:04:14.883Z,8.85
2019-06-26T21:06:43.547Z,8.48
2019-06-26T21:09:12.097Z,8.47
2019-06-26T21:11:40.730Z,9.18
2019-06-26T21:14:09.363Z,9.08
2019-06-26T21:16:37.989Z,9.00
2019-06-26T21:20:05.898Z,8.73
2019-06-26T21:21:51.892Z,8.55
2019-06-26T21:24:23.807Z,8.43
2019-06-26T21:26:52.618Z,8.63
2019-06-26T21:29:24.983Z,8.55
2019-06-26T21:31:53.424Z,8.23
2019-06-26T21:34:22.085Z,9.45
2019-06-26T21:36:50.654Z,8.47
2019-06-26T21:39:19.302Z,8.88
2019-06-26T21:41:48.205Z,8.68
2019-06-26T21:44:16.761Z,8.93
2019-06-26T21:46:45.384Z,9.03
2019-06-26T21:49:14.127Z,9.05
2019-06-26T21:51:42.718Z,9.00
2019-06-26T21:54:11.299Z,8.45
2019-06-26T21:56:39.933Z,9.05
2019-06-26T21:59:09.165Z,9.60
2019-06-26T22:01:37.892Z,9.63
2019-06-26T22:04:06.697Z,8.68
2019-06-26T22:06:36.124Z,9.13
2019-06-26T22:09:06.250Z,9.23
2019-06-26T22:11:34.804Z,8.43
2019-06-26T22:14:03.366Z,8.37
2019-06-26T22:16:31.929Z,8.93
2019-06-26T22:19:00.509Z,8.93
2019-06-26T22:21:29.336Z,8.45
2019-06-26T22:23:58.002Z,8.40
2019-06-26T22:26:27.368Z,8.88
2019-06-26T22:28:55.926Z,8.60
2019-06-26T22:31:24.594Z,8.68
2019-06-26T22:33:53.154Z,8.35
2019-06-26T22:36:21.706Z,8.30
2019-06-26T22:38:50.539Z,7.83
2019-06-26T22:41:19.092Z,8.60
2019-06-26T22:43:47.566Z,8.30
2019-06-26T22:46:16.159Z,8.50
2019-06-26T22:48:58.260Z,8.15
2019-06-26T22:51:26.882Z,8.08
2019-06-26T22:53:55.430Z,7.83
2019-06-26T22:56:24.363Z,8.50
2019-06-26T22:58:58.728Z,7.92
2019-06-26T23:01:27.429Z,8.58
2019-06-26T23:03:56.173Z,8.15
2019-06-26T23:06:24.880Z,8.33
2019-06-26T23:08:53.512Z,8.45
2019-06-26T23:11:22.125Z,8.55
2019-06-26T23:13:50.726Z,7.95
2019-06-26T23:16:19.413Z,7.80
2019-06-26T23:18:47.965Z,7.60
2019-06-26T23:21:16.591Z,8.43
2019-06-26T23:23:45.215Z,8.17
2019-06-26T23:26:23.626Z,8.30
2019-06-26T23:28:44.035Z,8.03
2019-06-26T23:31:12.635Z,7.85
2019-06-26T23:33:41.201Z,8.38
2019-06-26T23:36:09.788Z,8.10
2019-06-26T23:38:38.440Z,8.23
2019-06-26T23:41:07.094Z,8.00
2019-06-26T23:43:35.812Z,8.43
2019-06-26T23:46:04.459Z,8.10
2019-06-26T23:48:33.097Z,8.20
2019-06-26T23:51:01.709Z,7.83
2019-06-26T23:53:30.598Z,8.75
2019-06-26T23:55:59.176Z,7.40
2019-06-26T23:58:27.810Z,7.72
